sensor_id;sensor_type;location;lat;lon;timestamp;temperature;humidity
83289;DHT22;73193;50.866;5.420;2024-02-16T00:00:21;15.70;56.40
83289;DHT22;73193;50.866;5.420;2024-02-16T00:01:52;15.60;56.70
83289;DHT22;73193;50.866;5.420;2024-02-16T00:03:22;15.60;56.60
83289;DHT22;73193;50.866;5.420;2024-02-16T00:04:53;15.70;56.40
83289;DHT22;73193;50.866;5.420;2024-02-16T00:06:24;15.80;56.30
83289;DHT22;73193;50.866;5.420;2024-02-16T00:07:54;15.80;56.20
83289;DHT22;73193;50.866;5.420;2024-02-16T00:09:25;15.80;56.20
83289;DHT22;73193;50.866;5.420;2024-02-16T00:10:56;15.80;56.20
83289;DHT22;73193;50.866;5.420;2024-02-16T00:12:26;15.80;56.20
83289;DHT22;73193;50.866;5.420;2024-02-16T00:13:57;15.80;56.50
83289;DHT22;73193;50.866;5.420;2024-02-16T00:15:28;15.80;56.50
83289;DHT22;73193;50.866;5.420;2024-02-16T00:16:58;15.80;56.50
83289;DHT22;73193;50.866;5.420;2024-02-16T00:18:29;15.80;56.50
83289;DHT22;73193;50.866;5.420;2024-02-16T00:20:00;15.60;57.00
83289;DHT22;73193;50.866;5.420;2024-02-16T00:21:31;15.60;57.30
83289;DHT22;73193;50.866;5.420;2024-02-16T00:23:01;15.60;57.40
83289;DHT22;73193;50.866;5.420;2024-02-16T00:24:32;15.60;57.60
83289;DHT22;73193;50.866;5.420;2024-02-16T00:26:04;15.50;57.70
83289;DHT22;73193;50.866;5.420;2024-02-16T00:27:37;15.50;57.80
83289;DHT22;73193;50.866;5.420;2024-02-16T00:29:09;15.50;58.20
83289;DHT22;73193;50.866;5.420;2024-02-16T00:30:39;15.40;58.20
83289;DHT22;73193;50.866;5.420;2024-02-16T00:32:11;15.50;58.20
83289;DHT22;73193;50.866;5.420;2024-02-16T00:33:43;15.40;58.40
83289;DHT22;73193;50.866;5.420;2024-02-16T00:35:15;15.50;58.40
83289;DHT22;73193;50.866;5.420;2024-02-16T00:36:49;15.40;58.70
83289;DHT22;73193;50.866;5.420;2024-02-16T00:38:20;15.40;58.80
83289;DHT22;73193;50.866;5.420;2024-02-16T00:39:51;15.40;58.60
83289;DHT22;73193;50.866;5.420;2024-02-16T00:41:23;15.40;58.60
83289;DHT22;73193;50.866;5.420;2024-02-16T00:42:55;15.50;58.30
83289;DHT22;73193;50.866;5.420;2024-02-16T00:44:25;15.50;58.10
83289;DHT22;73193;50.866;5.420;2024-02-16T00:45:56;15.40;58.20
83289;DHT22;73193;50.866;5.420;2024-02-16T00:47:27;15.50;58.20
83289;DHT22;73193;50.866;5.420;2024-02-16T00:48:57;15.60;58.00
83289;DHT22;73193;50.866;5.420;2024-02-16T00:50:28;15.60;57.70
83289;DHT22;73193;50.866;5.420;2024-02-16T00:51:59;15.60;57.80
83289;DHT22;73193;50.866;5.420;2024-02-16T00:53:29;15.50;58.10
83289;DHT22;73193;50.866;5.420;2024-02-16T00:55:00;15.60;57.80
83289;DHT22;73193;50.866;5.420;2024-02-16T00:56:32;15.40;58.10
83289;DHT22;73193;50.866;5.420;2024-02-16T00:58:03;15.40;58.20
83289;DHT22;73193;50.866;5.420;2024-02-16T00:59:34;15.40;58.20
83289;DHT22;73193;50.866;5.420;2024-02-16T01:01:04;15.40;57.90
83289;DHT22;73193;50.866;5.420;2024-02-16T01:02:35;15.40;58.30
83289;DHT22;73193;50.866;5.420;2024-02-16T01:04:06;15.30;58.20
83289;DHT22;73193;50.866;5.420;2024-02-16T01:05:39;15.40;58.10
83289;DHT22;73193;50.866;5.420;2024-02-16T01:07:13;15.30;58.30
83289;DHT22;73193;50.866;5.420;2024-02-16T01:08:44;15.40;58.30
83289;DHT22;73193;50.866;5.420;2024-02-16T01:10:14;15.40;58.20
83289;DHT22;73193;50.866;5.420;2024-02-16T01:11:45;15.40;58.20
83289;DHT22;73193;50.866;5.420;2024-02-16T01:13:15;15.40;58.20
83289;DHT22;73193;50.866;5.420;2024-02-16T01:14:46;15.40;58.00
83289;DHT22;73193;50.866;5.420;2024-02-16T01:16:17;15.40;58.10
83289;DHT22;73193;50.866;5.420;2024-02-16T01:17:48;15.40;58.00
83289;DHT22;73193;50.866;5.420;2024-02-16T01:19:18;15.30;57.90
83289;DHT22;73193;50.866;5.420;2024-02-16T01:20:49;15.30;58.30
83289;DHT22;73193;50.866;5.420;2024-02-16T01:22:20;15.30;58.10
83289;DHT22;73193;50.866;5.420;2024-02-16T01:23:50;15.20;58.00
83289;DHT22;73193;50.866;5.420;2024-02-16T01:25:21;15.20;58.20
83289;DHT22;73193;50.866;5.420;2024-02-16T01:26:52;15.20;58.20
83289;DHT22;73193;50.866;5.420;2024-02-16T01:28:22;15.20;58.40
83289;DHT22;73193;50.866;5.420;2024-02-16T01:29:53;15.20;58.20
83289;DHT22;73193;50.866;5.420;2024-02-16T01:31:24;15.20;58.20
83289;DHT22;73193;50.866;5.420;2024-02-16T01:32:54;15.20;58.20
83289;DHT22;73193;50.866;5.420;2024-02-16T01:34:25;15.30;58.00
83289;DHT22;73193;50.866;5.420;2024-02-16T01:35:56;15.40;58.00
83289;DHT22;73193;50.866;5.420;2024-02-16T01:37:26;15.30;58.00
83289;DHT22;73193;50.866;5.420;2024-02-16T01:38:57;15.40;58.00
83289;DHT22;73193;50.866;5.420;2024-02-16T01:40:28;15.40;57.90
83289;DHT22;73193;50.866;5.420;2024-02-16T01:41:59;15.40;58.00
83289;DHT22;73193;50.866;5.420;2024-02-16T01:43:29;15.30;58.10
83289;DHT22;73193;50.866;5.420;2024-02-16T01:45:00;15.30;58.20
83289;DHT22;73193;50.866;5.420;2024-02-16T01:46:31;15.20;58.30
83289;DHT22;73193;50.866;5.420;2024-02-16T01:48:03;15.30;58.30
83289;DHT22;73193;50.866;5.420;2024-02-16T01:49:34;15.20;58.20
83289;DHT22;73193;50.866;5.420;2024-02-16T01:51:07;15.30;58.20
83289;DHT22;73193;50.866;5.420;2024-02-16T01:52:39;15.30;58.20
83289;DHT22;73193;50.866;5.420;2024-02-16T01:54:09;15.30;58.10
83289;DHT22;73193;50.866;5.420;2024-02-16T01:55:40;15.30;58.20
83289;DHT22;73193;50.866;5.420;2024-02-16T01:57:11;15.30;58.20
83289;DHT22;73193;50.866;5.420;2024-02-16T01:58:43;15.30;58.10
83289;DHT22;73193;50.866;5.420;2024-02-16T02:00:14;15.40;58.00
83289;DHT22;73193;50.866;5.420;2024-02-16T02:01:48;15.30;58.20
83289;DHT22;73193;50.866;5.420;2024-02-16T02:03:19;15.40;58.10
83289;DHT22;73193;50.866;5.420;2024-02-16T02:04:50;15.50;58.00
83289;DHT22;73193;50.866;5.420;2024-02-16T02:06:20;15.40;57.90
83289;DHT22;73193;50.866;5.420;2024-02-16T02:07:51;15.50;58.00
83289;DHT22;73193;50.866;5.420;2024-02-16T02:09:23;15.60;58.00
83289;DHT22;73193;50.866;5.420;2024-02-16T02:10:53;15.60;57.80
83289;DHT22;73193;50.866;5.420;2024-02-16T02:12:24;15.60;57.90
83289;DHT22;73193;50.866;5.420;2024-02-16T02:13:55;15.40;58.10
83289;DHT22;73193;50.866;5.420;2024-02-16T02:15:26;15.40;58.20
83289;DHT22;73193;50.866;5.420;2024-02-16T02:16:56;15.50;58.00
83289;DHT22;73193;50.866;5.420;2024-02-16T02:18:27;15.50;58.00
83289;DHT22;73193;50.866;5.420;2024-02-16T02:19:57;15.50;58.20
83289;DHT22;73193;50.866;5.420;2024-02-16T02:21:28;15.50;58.10
83289;DHT22;73193;50.866;5.420;2024-02-16T02:22:59;15.60;58.00
83289;DHT22;73193;50.866;5.420;2024-02-16T02:24:29;15.60;58.00
83289;DHT22;73193;50.866;5.420;2024-02-16T02:26:00;15.60;58.00
83289;DHT22;73193;50.866;5.420;2024-02-16T02:27:31;15.60;57.90
83289;DHT22;73193;50.866;5.420;2024-02-16T02:29:02;15.60;58.00
83289;DHT22;73193;50.866;5.420;2024-02-16T02:30:32;15.60;58.10
83289;DHT22;73193;50.866;5.420;2024-02-16T02:32:03;15.50;58.20
83289;DHT22;73193;50.866;5.420;2024-02-16T02:33:34;15.50;58.20
83289;DHT22;73193;50.866;5.420;2024-02-16T02:35:06;15.40;58.30
83289;DHT22;73193;50.866;5.420;2024-02-16T02:36:39;15.50;58.20
83289;DHT22;73193;50.866;5.420;2024-02-16T02:38:10;15.40;58.30
83289;DHT22;73193;50.866;5.420;2024-02-16T02:39:41;15.60;58.30
83289;DHT22;73193;50.866;5.420;2024-02-16T02:41:11;15.60;58.20
83289;DHT22;73193;50.866;5.420;2024-02-16T02:42:42;15.60;58.10
83289;DHT22;73193;50.866;5.420;2024-02-16T02:44:13;15.60;58.20
83289;DHT22;73193;50.866;5.420;2024-02-16T02:45:43;15.50;58.20
83289;DHT22;73193;50.866;5.420;2024-02-16T02:47:14;15.50;58.30
83289;DHT22;73193;50.866;5.420;2024-02-16T02:48:45;15.50;58.30
83289;DHT22;73193;50.866;5.420;2024-02-16T02:50:16;15.50;58.20
83289;DHT22;73193;50.866;5.420;2024-02-16T02:51:47;15.50;58.40
83289;DHT22;73193;50.866;5.420;2024-02-16T02:53:17;15.50;58.40
83289;DHT22;73193;50.866;5.420;2024-02-16T02:54:48;15.40;58.50
83289;DHT22;73193;50.866;5.420;2024-02-16T02:56:19;15.50;58.40
83289;DHT22;73193;50.866;5.420;2024-02-16T02:57:50;15.40;58.50
83289;DHT22;73193;50.866;5.420;2024-02-16T02:59:20;15.40;58.60
83289;DHT22;73193;50.866;5.420;2024-02-16T03:00:51;15.30;58.70
83289;DHT22;73193;50.866;5.420;2024-02-16T03:02:21;15.40;58.60
83289;DHT22;73193;50.866;5.420;2024-02-16T03:03:52;15.40;58.60
83289;DHT22;73193;50.866;5.420;2024-02-16T03:05:23;15.40;58.70
83289;DHT22;73193;50.866;5.420;2024-02-16T03:06:53;15.50;58.70
83289;DHT22;73193;50.866;5.420;2024-02-16T03:08:24;15.40;58.60
83289;DHT22;73193;50.866;5.420;2024-02-16T03:09:54;15.40;58.60
83289;DHT22;73193;50.866;5.420;2024-02-16T03:11:25;15.50;58.60
83289;DHT22;73193;50.866;5.420;2024-02-16T03:12:56;15.50;58.60
83289;DHT22;73193;50.866;5.420;2024-02-16T03:14:27;15.50;58.60
83289;DHT22;73193;50.866;5.420;2024-02-16T03:15:57;15.60;58.60
83289;DHT22;73193;50.866;5.420;2024-02-16T03:17:28;15.60;58.40
83289;DHT22;73193;50.866;5.420;2024-02-16T03:18:59;15.60;58.30
83289;DHT22;73193;50.866;5.420;2024-02-16T03:20:30;15.60;58.50
83289;DHT22;73193;50.866;5.420;2024-02-16T03:22:00;15.60;58.40
83289;DHT22;73193;50.866;5.420;2024-02-16T03:23:31;15.60;58.40
83289;DHT22;73193;50.866;5.420;2024-02-16T03:25:02;15.60;58.50
83289;DHT22;73193;50.866;5.420;2024-02-16T03:26:32;15.60;58.80
83289;DHT22;73193;50.866;5.420;2024-02-16T03:28:03;15.50;58.70
83289;DHT22;73193;50.866;5.420;2024-02-16T03:29:34;15.60;58.70
83289;DHT22;73193;50.866;5.420;2024-02-16T03:31:05;15.60;58.50
83289;DHT22;73193;50.866;5.420;2024-02-16T03:32:35;15.60;58.50
83289;DHT22;73193;50.866;5.420;2024-02-16T03:34:06;15.60;58.60
83289;DHT22;73193;50.866;5.420;2024-02-16T03:35:37;15.70;58.50
83289;DHT22;73193;50.866;5.420;2024-02-16T03:37:07;15.70;58.50
83289;DHT22;73193;50.866;5.420;2024-02-16T03:38:43;15.70;58.60
83289;DHT22;73193;50.866;5.420;2024-02-16T03:40:14;15.70;58.60
83289;DHT22;73193;50.866;5.420;2024-02-16T03:41:45;15.60;58.70
83289;DHT22;73193;50.866;5.420;2024-02-16T03:43:19;15.60;58.40
83289;DHT22;73193;50.866;5.420;2024-02-16T03:44:49;15.70;58.40
83289;DHT22;73193;50.866;5.420;2024-02-16T03:46:20;15.80;58.40
83289;DHT22;73193;50.866;5.420;2024-02-16T03:47:51;15.80;58.60
83289;DHT22;73193;50.866;5.420;2024-02-16T03:49:25;15.80;58.40
83289;DHT22;73193;50.866;5.420;2024-02-16T03:50:58;15.80;58.60
83289;DHT22;73193;50.866;5.420;2024-02-16T03:52:29;15.70;58.60
83289;DHT22;73193;50.866;5.420;2024-02-16T03:54:01;15.70;58.70
83289;DHT22;73193;50.866;5.420;2024-02-16T03:55:32;15.70;58.60
83289;DHT22;73193;50.866;5.420;2024-02-16T03:57:06;15.70;58.60
83289;DHT22;73193;50.866;5.420;2024-02-16T03:58:39;15.60;58.80
83289;DHT22;73193;50.866;5.420;2024-02-16T04:00:10;15.60;58.90
83289;DHT22;73193;50.866;5.420;2024-02-16T04:01:42;15.60;58.80
83289;DHT22;73193;50.866;5.420;2024-02-16T04:03:13;15.80;58.70
83289;DHT22;73193;50.866;5.420;2024-02-16T04:04:44;15.70;58.70
83289;DHT22;73193;50.866;5.420;2024-02-16T04:06:14;15.70;58.80
83289;DHT22;73193;50.866;5.420;2024-02-16T04:07:45;15.80;58.80
83289;DHT22;73193;50.866;5.420;2024-02-16T04:09:16;15.80;58.70
83289;DHT22;73193;50.866;5.420;2024-02-16T04:10:46;15.70;58.90
83289;DHT22;73193;50.866;5.420;2024-02-16T04:12:17;15.70;59.00
83289;DHT22;73193;50.866;5.420;2024-02-16T04:13:48;15.70;58.90
83289;DHT22;73193;50.866;5.420;2024-02-16T04:15:19;15.80;58.80
83289;DHT22;73193;50.866;5.420;2024-02-16T04:16:49;15.80;58.90
83289;DHT22;73193;50.866;5.420;2024-02-16T04:18:20;15.70;59.00
83289;DHT22;73193;50.866;5.420;2024-02-16T04:19:51;15.70;59.00
83289;DHT22;73193;50.866;5.420;2024-02-16T04:21:22;15.60;59.20
83289;DHT22;73193;50.866;5.420;2024-02-16T04:22:52;15.60;59.10
83289;DHT22;73193;50.866;5.420;2024-02-16T04:24:23;15.70;59.00
83289;DHT22;73193;50.866;5.420;2024-02-16T04:25:54;15.80;58.90
83289;DHT22;73193;50.866;5.420;2024-02-16T04:27:24;15.60;59.10
83289;DHT22;73193;50.866;5.420;2024-02-16T04:28:55;15.60;59.10
83289;DHT22;73193;50.866;5.420;2024-02-16T04:30:25;15.60;59.10
83289;DHT22;73193;50.866;5.420;2024-02-16T04:31:56;15.70;59.00
83289;DHT22;73193;50.866;5.420;2024-02-16T04:33:27;15.80;58.90
83289;DHT22;73193;50.866;5.420;2024-02-16T04:34:57;15.80;59.00
83289;DHT22;73193;50.866;5.420;2024-02-16T04:36:29;15.80;59.00
83289;DHT22;73193;50.866;5.420;2024-02-16T04:38:00;15.80;59.00
83289;DHT22;73193;50.866;5.420;2024-02-16T04:39:31;15.80;58.80
83289;DHT22;73193;50.866;5.420;2024-02-16T04:41:01;15.80;58.90
83289;DHT22;73193;50.866;5.420;2024-02-16T04:42:32;15.80;59.00
83289;DHT22;73193;50.866;5.420;2024-02-16T04:44:02;15.70;59.20
83289;DHT22;73193;50.866;5.420;2024-02-16T04:45:33;15.80;59.10
83289;DHT22;73193;50.866;5.420;2024-02-16T04:47:05;15.80;59.00
83289;DHT22;73193;50.866;5.420;2024-02-16T04:48:36;15.80;59.10
83289;DHT22;73193;50.866;5.420;2024-02-16T04:50:07;15.80;58.90
83289;DHT22;73193;50.866;5.420;2024-02-16T04:51:41;15.80;59.00
83289;DHT22;73193;50.866;5.420;2024-02-16T04:53:11;15.80;59.10
83289;DHT22;73193;50.866;5.420;2024-02-16T04:54:42;15.80;59.10
83289;DHT22;73193;50.866;5.420;2024-02-16T04:56:12;15.80;59.10
83289;DHT22;73193;50.866;5.420;2024-02-16T04:57:43;15.80;59.10
83289;DHT22;73193;50.866;5.420;2024-02-16T04:59:15;15.80;59.10
83289;DHT22;73193;50.866;5.420;2024-02-16T05:00:45;15.80;59.20
83289;DHT22;73193;50.866;5.420;2024-02-16T05:02:17;15.80;59.20
83289;DHT22;73193;50.866;5.420;2024-02-16T05:03:48;15.80;59.30
83289;DHT22;73193;50.866;5.420;2024-02-16T05:05:19;15.80;59.20
83289;DHT22;73193;50.866;5.420;2024-02-16T05:06:49;15.80;59.20
83289;DHT22;73193;50.866;5.420;2024-02-16T05:08:23;15.80;59.30
83289;DHT22;73193;50.866;5.420;2024-02-16T05:09:53;15.80;59.20
83289;DHT22;73193;50.866;5.420;2024-02-16T05:11:32;15.80;59.10
83289;DHT22;73193;50.866;5.420;2024-02-16T05:13:03;15.80;59.20
83289;DHT22;73193;50.866;5.420;2024-02-16T05:14:34;15.80;59.40
83289;DHT22;73193;50.866;5.420;2024-02-16T05:16:09;15.80;59.20
83289;DHT22;73193;50.866;5.420;2024-02-16T05:17:40;15.80;59.20
83289;DHT22;73193;50.866;5.420;2024-02-16T05:19:10;16.00;58.90
83289;DHT22;73193;50.866;5.420;2024-02-16T05:20:41;16.00;58.90
83289;DHT22;73193;50.866;5.420;2024-02-16T05:22:12;15.90;59.00
83289;DHT22;73193;50.866;5.420;2024-02-16T05:23:42;15.80;59.20
83289;DHT22;73193;50.866;5.420;2024-02-16T05:25:13;15.80;59.30
83289;DHT22;73193;50.866;5.420;2024-02-16T05:26:44;15.90;59.10
83289;DHT22;73193;50.866;5.420;2024-02-16T05:28:15;16.00;59.00
83289;DHT22;73193;50.866;5.420;2024-02-16T05:29:47;16.00;58.90
83289;DHT22;73193;50.866;5.420;2024-02-16T05:31:18;16.00;59.10
83289;DHT22;73193;50.866;5.420;2024-02-16T05:32:51;16.00;59.20
83289;DHT22;73193;50.866;5.420;2024-02-16T05:34:23;16.00;59.10
83289;DHT22;73193;50.866;5.420;2024-02-16T05:35:54;16.00;59.40
83289;DHT22;73193;50.866;5.420;2024-02-16T05:37:29;15.90;59.40
83289;DHT22;73193;50.866;5.420;2024-02-16T05:39:02;15.80;59.60
83289;DHT22;73193;50.866;5.420;2024-02-16T05:40:56;15.80;59.70
83289;DHT22;73193;50.866;5.420;2024-02-16T05:42:27;15.80;59.80
83289;DHT22;73193;50.866;5.420;2024-02-16T05:43:58;15.80;59.80
83289;DHT22;73193;50.866;5.420;2024-02-16T05:45:29;15.80;59.80
83289;DHT22;73193;50.866;5.420;2024-02-16T05:47:00;15.80;59.60
83289;DHT22;73193;50.866;5.420;2024-02-16T05:48:31;15.80;59.70
83289;DHT22;73193;50.866;5.420;2024-02-16T05:50:02;15.80;59.60
83289;DHT22;73193;50.866;5.420;2024-02-16T05:51:35;15.80;59.50
83289;DHT22;73193;50.866;5.420;2024-02-16T05:53:07;15.80;59.40
83289;DHT22;73193;50.866;5.420;2024-02-16T05:54:40;15.80;59.60
83289;DHT22;73193;50.866;5.420;2024-02-16T05:56:11;15.60;59.80
83289;DHT22;73193;50.866;5.420;2024-02-16T05:57:42;15.70;59.70
83289;DHT22;73193;50.866;5.420;2024-02-16T05:59:12;15.60;59.70
83289;DHT22;73193;50.866;5.420;2024-02-16T06:00:43;15.60;59.90
83289;DHT22;73193;50.866;5.420;2024-02-16T06:02:14;15.60;59.80
83289;DHT22;73193;50.866;5.420;2024-02-16T06:03:45;15.60;59.70
83289;DHT22;73193;50.866;5.420;2024-02-16T06:05:16;15.60;59.80
83289;DHT22;73193;50.866;5.420;2024-02-16T06:06:47;15.60;59.80
83289;DHT22;73193;50.866;5.420;2024-02-16T06:08:18;15.60;59.80
83289;DHT22;73193;50.866;5.420;2024-02-16T06:09:49;15.60;59.70
83289;DHT22;73193;50.866;5.420;2024-02-16T06:11:20;15.60;59.60
83289;DHT22;73193;50.866;5.420;2024-02-16T06:12:51;15.60;59.90
83289;DHT22;73193;50.866;5.420;2024-02-16T06:14:21;15.60;59.90
83289;DHT22;73193;50.866;5.420;2024-02-16T06:15:53;15.50;60.10
83289;DHT22;73193;50.866;5.420;2024-02-16T06:17:24;15.50;60.00
83289;DHT22;73193;50.866;5.420;2024-02-16T06:18:54;15.60;60.00
83289;DHT22;73193;50.866;5.420;2024-02-16T06:20:25;15.60;59.80
83289;DHT22;73193;50.866;5.420;2024-02-16T06:21:56;15.60;60.00
83289;DHT22;73193;50.866;5.420;2024-02-16T06:23:26;15.50;60.10
83289;DHT22;73193;50.866;5.420;2024-02-16T06:24:57;15.60;60.00
83289;DHT22;73193;50.866;5.420;2024-02-16T06:26:28;15.60;59.90
83289;DHT22;73193;50.866;5.420;2024-02-16T06:27:58;15.60;60.00
83289;DHT22;73193;50.866;5.420;2024-02-16T06:29:29;15.60;60.00
83289;DHT22;73193;50.866;5.420;2024-02-16T06:31:03;15.70;59.80
83289;DHT22;73193;50.866;5.420;2024-02-16T06:32:34;15.60;59.90
83289;DHT22;73193;50.866;5.420;2024-02-16T06:34:05;15.60;60.00
83289;DHT22;73193;50.866;5.420;2024-02-16T06:35:36;15.60;60.10
83289;DHT22;73193;50.866;5.420;2024-02-16T06:37:06;15.60;60.10
83289;DHT22;73193;50.866;5.420;2024-02-16T06:38:37;15.60;60.10
83289;DHT22;73193;50.866;5.420;2024-02-16T06:40:08;15.60;60.20
83289;DHT22;73193;50.866;5.420;2024-02-16T06:41:42;15.60;60.00
83289;DHT22;73193;50.866;5.420;2024-02-16T06:43:14;15.60;60.00
83289;DHT22;73193;50.866;5.420;2024-02-16T06:44:45;15.60;60.20
83289;DHT22;73193;50.866;5.420;2024-02-16T06:46:15;15.60;60.30
83289;DHT22;73193;50.866;5.420;2024-02-16T06:47:46;15.60;60.30
83289;DHT22;73193;50.866;5.420;2024-02-16T06:49:17;15.60;60.30
83289;DHT22;73193;50.866;5.420;2024-02-16T06:50:47;15.60;60.30
83289;DHT22;73193;50.866;5.420;2024-02-16T06:52:18;15.60;60.30
83289;DHT22;73193;50.866;5.420;2024-02-16T06:53:49;15.60;60.50
83289;DHT22;73193;50.866;5.420;2024-02-16T06:55:20;15.60;60.50
83289;DHT22;73193;50.866;5.420;2024-02-16T06:56:50;15.60;60.40
83289;DHT22;73193;50.866;5.420;2024-02-16T06:58:24;15.70;60.20
83289;DHT22;73193;50.866;5.420;2024-02-16T06:59:55;15.70;60.10
83289;DHT22;73193;50.866;5.420;2024-02-16T07:01:27;15.70;60.30
83289;DHT22;73193;50.866;5.420;2024-02-16T07:02:58;15.60;60.50
83289;DHT22;73193;50.866;5.420;2024-02-16T07:04:28;15.60;60.50
83289;DHT22;73193;50.866;5.420;2024-02-16T07:05:59;15.60;60.50
83289;DHT22;73193;50.866;5.420;2024-02-16T07:07:30;15.70;60.30
83289;DHT22;73193;50.866;5.420;2024-02-16T07:09:02;15.70;60.50
83289;DHT22;73193;50.866;5.420;2024-02-16T07:10:33;15.70;60.40
83289;DHT22;73193;50.866;5.420;2024-02-16T07:12:05;15.70;60.40
83289;DHT22;73193;50.866;5.420;2024-02-16T07:13:43;15.80;60.40
83289;DHT22;73193;50.866;5.420;2024-02-16T07:15:13;15.80;60.20
83289;DHT22;73193;50.866;5.420;2024-02-16T07:16:44;15.80;60.20
83289;DHT22;73193;50.866;5.420;2024-02-16T07:18:15;15.80;60.20
83289;DHT22;73193;50.866;5.420;2024-02-16T07:19:46;15.80;60.20
83289;DHT22;73193;50.866;5.420;2024-02-16T07:21:16;15.80;60.20
83289;DHT22;73193;50.866;5.420;2024-02-16T07:22:51;15.80;60.40
83289;DHT22;73193;50.866;5.420;2024-02-16T07:24:23;15.80;60.50
83289;DHT22;73193;50.866;5.420;2024-02-16T07:25:54;15.80;60.60
83289;DHT22;73193;50.866;5.420;2024-02-16T07:27:26;15.80;60.50
83289;DHT22;73193;50.866;5.420;2024-02-16T07:28:57;15.80;60.50
83289;DHT22;73193;50.866;5.420;2024-02-16T07:30:28;15.80;60.50
83289;DHT22;73193;50.866;5.420;2024-02-16T07:31:58;15.90;60.40
83289;DHT22;73193;50.866;5.420;2024-02-16T07:33:29;15.90;60.40
83289;DHT22;73193;50.866;5.420;2024-02-16T07:34:59;15.80;60.40
83289;DHT22;73193;50.866;5.420;2024-02-16T07:36:30;15.90;60.60
83289;DHT22;73193;50.866;5.420;2024-02-16T07:38:02;15.80;60.60
83289;DHT22;73193;50.866;5.420;2024-02-16T07:39:33;15.90;60.60
83289;DHT22;73193;50.866;5.420;2024-02-16T07:41:04;15.90;60.50
83289;DHT22;73193;50.866;5.420;2024-02-16T07:42:39;15.80;60.70
83289;DHT22;73193;50.866;5.420;2024-02-16T07:44:13;16.00;60.50
83289;DHT22;73193;50.866;5.420;2024-02-16T07:45:43;16.00;60.40
83289;DHT22;73193;50.866;5.420;2024-02-16T07:47:14;15.90;60.70
83289;DHT22;73193;50.866;5.420;2024-02-16T07:48:46;15.90;60.70
83289;DHT22;73193;50.866;5.420;2024-02-16T07:50:20;16.00;60.70
83289;DHT22;73193;50.866;5.420;2024-02-16T07:51:51;16.00;60.60
83289;DHT22;73193;50.866;5.420;2024-02-16T07:53:22;16.00;60.70
83289;DHT22;73193;50.866;5.420;2024-02-16T07:54:52;16.00;60.90
83289;DHT22;73193;50.866;5.420;2024-02-16T07:56:23;16.00;60.90
83289;DHT22;73193;50.866;5.420;2024-02-16T07:57:54;16.00;61.30
83289;DHT22;73193;50.866;5.420;2024-02-16T07:59:24;16.00;61.50
83289;DHT22;73193;50.866;5.420;2024-02-16T08:00:55;16.00;61.30
83289;DHT22;73193;50.866;5.420;2024-02-16T08:02:25;16.00;61.40
83289;DHT22;73193;50.866;5.420;2024-02-16T08:03:56;16.00;61.50
83289;DHT22;73193;50.866;5.420;2024-02-16T08:05:27;16.00;61.30
83289;DHT22;73193;50.866;5.420;2024-02-16T08:06:57;16.00;61.20
83289;DHT22;73193;50.866;5.420;2024-02-16T08:08:28;16.00;61.20
83289;DHT22;73193;50.866;5.420;2024-02-16T08:09:59;16.10;61.00
83289;DHT22;73193;50.866;5.420;2024-02-16T08:11:31;16.10;61.10
83289;DHT22;73193;50.866;5.420;2024-02-16T08:13:02;16.00;61.40
83289;DHT22;73193;50.866;5.420;2024-02-16T08:14:33;16.00;61.50
83289;DHT22;73193;50.866;5.420;2024-02-16T08:16:04;16.00;61.70
83289;DHT22;73193;50.866;5.420;2024-02-16T08:17:37;16.00;61.60
83289;DHT22;73193;50.866;5.420;2024-02-16T08:19:08;16.00;61.50
83289;DHT22;73193;50.866;5.420;2024-02-16T08:20:38;16.10;61.50
83289;DHT22;73193;50.866;5.420;2024-02-16T08:22:09;16.00;61.70
83289;DHT22;73193;50.866;5.420;2024-02-16T08:23:40;16.10;61.60
83289;DHT22;73193;50.866;5.420;2024-02-16T08:25:10;16.10;61.50
83289;DHT22;73193;50.866;5.420;2024-02-16T08:26:41;16.20;61.50
83289;DHT22;73193;50.866;5.420;2024-02-16T08:28:11;16.10;61.40
83289;DHT22;73193;50.866;5.420;2024-02-16T08:29:43;16.20;61.60
83289;DHT22;73193;50.866;5.420;2024-02-16T08:31:16;16.30;61.30
83289;DHT22;73193;50.866;5.420;2024-02-16T08:32:49;16.40;61.10
83289;DHT22;73193;50.866;5.420;2024-02-16T08:34:20;16.40;61.30
83289;DHT22;73193;50.866;5.420;2024-02-16T08:35:51;16.30;61.30
83289;DHT22;73193;50.866;5.420;2024-02-16T08:37:23;16.40;61.30
83289;DHT22;73193;50.866;5.420;2024-02-16T08:38:53;16.40;61.30
83289;DHT22;73193;50.866;5.420;2024-02-16T08:40:24;16.40;61.10
83289;DHT22;73193;50.866;5.420;2024-02-16T08:41:55;16.40;61.00
83289;DHT22;73193;50.866;5.420;2024-02-16T08:43:25;16.40;61.40
83289;DHT22;73193;50.866;5.420;2024-02-16T08:44:56;16.40;61.10
83289;DHT22;73193;50.866;5.420;2024-02-16T08:46:28;16.40;61.00
83289;DHT22;73193;50.866;5.420;2024-02-16T08:47:59;16.50;61.10
83289;DHT22;73193;50.866;5.420;2024-02-16T08:49:33;16.40;60.80
83289;DHT22;73193;50.866;5.420;2024-02-16T08:51:04;16.40;61.20
83289;DHT22;73193;50.866;5.420;2024-02-16T08:52:36;16.50;60.90
83289;DHT22;73193;50.866;5.420;2024-02-16T08:54:06;16.50;60.80
83289;DHT22;73193;50.866;5.420;2024-02-16T08:55:37;16.50;60.80
83289;DHT22;73193;50.866;5.420;2024-02-16T08:57:08;16.50;60.90
83289;DHT22;73193;50.866;5.420;2024-02-16T08:58:40;16.50;61.20
83289;DHT22;73193;50.866;5.420;2024-02-16T09:00:11;16.50;61.10
83289;DHT22;73193;50.866;5.420;2024-02-16T09:01:43;16.60;60.90
83289;DHT22;73193;50.866;5.420;2024-02-16T09:03:13;16.70;60.70
83289;DHT22;73193;50.866;5.420;2024-02-16T09:04:45;16.70;60.70
83289;DHT22;73193;50.866;5.420;2024-02-16T09:06:16;16.70;60.70
83289;DHT22;73193;50.866;5.420;2024-02-16T09:07:48;16.50;61.10
83289;DHT22;73193;50.866;5.420;2024-02-16T09:09:19;16.50;62.00
83289;DHT22;73193;50.866;5.420;2024-02-16T09:10:49;16.60;62.20
83289;DHT22;73193;50.866;5.420;2024-02-16T09:12:21;16.60;62.50
83289;DHT22;73193;50.866;5.420;2024-02-16T09:13:51;16.60;62.20
83289;DHT22;73193;50.866;5.420;2024-02-16T09:15:22;16.50;62.30
83289;DHT22;73193;50.866;5.420;2024-02-16T09:16:53;16.60;62.60
83289;DHT22;73193;50.866;5.420;2024-02-16T09:18:23;16.60;62.70
83289;DHT22;73193;50.866;5.420;2024-02-16T09:19:54;16.50;63.00
83289;DHT22;73193;50.866;5.420;2024-02-16T09:21:25;16.50;63.00
83289;DHT22;73193;50.866;5.420;2024-02-16T09:22:58;16.50;62.80
83289;DHT22;73193;50.866;5.420;2024-02-16T09:24:29;16.50;62.50
83289;DHT22;73193;50.866;5.420;2024-02-16T09:26:00;16.50;62.90
83289;DHT22;73193;50.866;5.420;2024-02-16T09:27:30;16.60;62.80
83289;DHT22;73193;50.866;5.420;2024-02-16T09:29:02;16.60;62.80
83289;DHT22;73193;50.866;5.420;2024-02-16T09:30:32;16.70;62.50
83289;DHT22;73193;50.866;5.420;2024-02-16T09:32:04;16.70;62.40
83289;DHT22;73193;50.866;5.420;2024-02-16T09:33:35;16.80;62.40
83289;DHT22;73193;50.866;5.420;2024-02-16T09:35:06;16.80;62.00